Time;durP1;ratioP1;P1;durP2;ratioP2;P2;SDS_P1;SDS_P2;PMS_P1;PMS_P2;Temp;Humidity;BMP_temperature;BMP_pressure;BME280_temperature;BME280_humidity;BME280_pressure;Samples;Min_cycle;Max_cycle;Signal;HPM_P1;HPM_P2
2022/03/16 00:01:36;;;;;;;;;;;5.70;84.40;;;;;;5047230;28;19913;-82
2022/03/16 00:04:02;;;;;;;;;;;5.60;84.30;;;;;;5052624;28;20270;-82
2022/03/16 00:06:28;;;;;;;;;;;5.60;84.40;;;;;;5052054;28;20107;-82
2022/03/16 00:08:54;;;;;;;;;;;5.60;84.40;;;;;;5052927;28;19920;-82
2022/03/16 00:11:19;;;;;;;;;;;5.60;84.50;;;;;;5050205;28;19984;-80
2022/03/16 00:13:45;;;;;;;;;;;5.60;84.50;;;;;;5039196;28;19914;-81
2022/03/16 00:16:11;;;;;;;;;;;5.50;84.50;;;;;;5052719;28;20136;-81
2022/03/16 00:18:36;;;;;;;;;;;5.40;84.20;;;;;;5065013;28;20015;-80
2022/03/16 00:21:02;;;;;;;;;;;5.40;84.30;;;;;;5069473;28;19911;-82
2022/03/16 00:23:27;;;;;;;;;;;5.40;84.40;;;;;;5065780;28;19979;-82
2022/03/16 00:25:53;;;;;;;;;;;5.50;84.40;;;;;;5063803;28;20207;-81
2022/03/16 00:28:18;;;;;;;;;;;5.40;84.50;;;;;;5058863;28;19913;-83
2022/03/16 00:30:44;;;;;;;;;;;5.30;84.20;;;;;;5041664;28;20385;-83
2022/03/16 00:33:11;;;;;;;;;;;5.20;84.40;;;;;;5070824;28;19989;-82
2022/03/16 00:35:37;;;;;;;;;;;5.30;84.40;;;;;;5054745;28;19909;-82
2022/03/16 00:38:02;;;;;;;;;;;5.30;84.50;;;;;;5057050;28;19920;-81
2022/03/16 00:40:27;;;;;;;;;;;5.20;84.80;;;;;;5050628;28;19963;-82
2022/03/16 00:42:53;;;;;;;;;;;5.20;84.60;;;;;;5050450;28;19967;-82
2022/03/16 00:45:19;;;;;;;;;;;5.30;84.30;;;;;;5037964;28;19923;-82
2022/03/16 00:47:44;;;;;;;;;;;5.30;84.00;;;;;;5051925;28;19920;-81
2022/03/16 00:50:10;;;;;;;;;;;5.10;84.40;;;;;;5054767;28;19913;-81
2022/03/16 00:52:35;;;;;;;;;;;5.10;84.70;;;;;;5053926;28;19924;-83
2022/03/16 00:55:01;;;;;;;;;;;5.10;84.70;;;;;;5052461;28;19913;-80
2022/03/16 00:57:26;;;;;;;;;;;5.10;84.20;;;;;;5049404;28;19913;-82
2022/03/16 00:59:52;;;;;;;;;;;5.20;83.70;;;;;;5051088;28;19966;-82
2022/03/16 01:02:17;;;;;;;;;;;5.20;84.00;;;;;;5055037;28;19923;-82
2022/03/16 01:04:43;;;;;;;;;;;5.10;84.40;;;;;;5064435;28;19917;-81
2022/03/16 01:07:08;;;;;;;;;;;5.00;84.20;;;;;;5109127;28;19924;-81
2022/03/16 01:09:34;;;;;;;;;;;5.00;84.40;;;;;;5068102;28;19900;-81
2022/03/16 01:12:01;;;;;;;;;;;5.00;84.30;;;;;;5047650;28;20024;-80
2022/03/16 01:14:26;;;;;;;;;;;4.90;84.50;;;;;;5044689;28;19913;-81
2022/03/16 01:16:52;;;;;;;;;;;4.90;84.30;;;;;;5034243;28;20377;-82
2022/03/16 01:19:17;;;;;;;;;;;5.00;84.30;;;;;;5049790;28;19913;-81
2022/03/16 01:21:44;;;;;;;;;;;4.90;84.20;;;;;;5044551;28;19923;-82
2022/03/16 01:24:10;;;;;;;;;;;4.90;84.10;;;;;;5046163;28;19960;-79
2022/03/16 01:26:35;;;;;;;;;;;4.90;84.30;;;;;;5046554;28;20011;-82
2022/03/16 01:29:04;;;;;;;;;;;4.90;84.50;;;;;;5041114;28;19928;-80
2022/03/16 01:31:29;;;;;;;;;;;5.00;84.50;;;;;;5064454;28;19924;-80
2022/03/16 01:33:55;;;;;;;;;;;5.00;83.90;;;;;;5074797;28;19908;-80
2022/03/16 01:36:20;;;;;;;;;;;5.00;83.60;;;;;;5075256;28;19916;-80
2022/03/16 01:38:46;;;;;;;;;;;4.90;83.80;;;;;;5070552;28;19936;-80
2022/03/16 01:41:12;;;;;;;;;;;4.90;83.90;;;;;;5067063;28;19916;-79
2022/03/16 01:43:37;;;;;;;;;;;4.80;84.40;;;;;;5039788;28;19913;-82
2022/03/16 01:46:03;;;;;;;;;;;5.00;84.30;;;;;;5037516;28;19913;-82
2022/03/16 01:48:29;;;;;;;;;;;4.90;84.10;;;;;;5051952;28;19920;-80
2022/03/16 01:50:54;;;;;;;;;;;4.90;84.30;;;;;;5041319;28;19913;-80
2022/03/16 01:53:24;;;;;;;;;;;4.90;83.80;;;;;;5049199;28;19981;-81
2022/03/16 01:55:50;;;;;;;;;;;4.80;83.70;;;;;;5039319;28;19964;-81
2022/03/16 01:58:17;;;;;;;;;;;4.80;83.40;;;;;;5042492;28;19921;-81
2022/03/16 02:00:43;;;;;;;;;;;4.80;82.80;;;;;;5044334;28;20404;-82
2022/03/16 02:03:09;;;;;;;;;;;4.70;82.90;;;;;;5052319;28;19976;-82
2022/03/16 02:05:35;;;;;;;;;;;4.50;83.20;;;;;;5053360;28;19917;-82
2022/03/16 02:08:01;;;;;;;;;;;4.50;83.30;;;;;;5052537;28;19917;-82
2022/03/16 02:10:26;;;;;;;;;;;4.30;83.60;;;;;;5051390;28;20000;-82
2022/03/16 02:12:52;;;;;;;;;;;4.30;83.70;;;;;;5038042;28;19975;-80
2022/03/16 02:15:18;;;;;;;;;;;4.30;83.70;;;;;;5042257;28;19928;-81
2022/03/16 02:17:44;;;;;;;;;;;4.30;83.60;;;;;;5053099;28;19920;-82
2022/03/16 02:20:10;;;;;;;;;;;4.20;84.10;;;;;;5044662;28;19917;-81
2022/03/16 02:22:36;;;;;;;;;;;4.10;84.70;;;;;;5044365;28;19924;-82
2022/03/16 02:25:02;;;;;;;;;;;4.30;84.60;;;;;;5037007;28;20384;-81
2022/03/16 02:27:28;;;;;;;;;;;4.30;84.40;;;;;;5052414;28;19923;-82
2022/03/16 02:29:54;;;;;;;;;;;4.30;84.20;;;;;;5054470;28;19913;-82
2022/03/16 02:32:19;;;;;;;;;;;4.30;84.10;;;;;;5061957;28;20058;-82
2022/03/16 02:34:45;;;;;;;;;;;4.20;84.00;;;;;;5057656;28;19923;-83
2022/03/16 02:37:10;;;;;;;;;;;4.10;83.40;;;;;;5060876;28;19947;-83
2022/03/16 02:39:36;;;;;;;;;;;4.10;84.10;;;;;;5055421;28;19932;-82
2022/03/16 02:42:02;;;;;;;;;;;4.10;83.80;;;;;;5056292;28;20228;-83
2022/03/16 02:44:27;;;;;;;;;;;4.20;83.70;;;;;;5042470;28;19917;-83
2022/03/16 02:46:53;;;;;;;;;;;4.10;83.50;;;;;;5046294;28;20445;-83
2022/03/16 02:49:18;;;;;;;;;;;4.10;84.20;;;;;;5068484;28;20395;-83
2022/03/16 02:51:44;;;;;;;;;;;4.10;84.20;;;;;;5043583;28;20580;-83
2022/03/16 02:54:09;;;;;;;;;;;4.10;84.80;;;;;;5049565;28;19952;-84
2022/03/16 02:56:35;;;;;;;;;;;4.20;85.00;;;;;;5050011;28;20577;-82
2022/03/16 02:59:01;;;;;;;;;;;4.20;85.20;;;;;;5060561;28;19917;-83
2022/03/16 03:01:27;;;;;;;;;;;4.20;85.40;;;;;;5036281;28;20520;-83
2022/03/16 03:03:52;;;;;;;;;;;4.30;85.20;;;;;;5034774;28;19977;-83
2022/03/16 03:06:18;;;;;;;;;;;4.30;85.40;;;;;;5048291;28;20289;-82
2022/03/16 03:08:44;;;;;;;;;;;4.30;85.10;;;;;;5040573;28;19912;-82
2022/03/16 03:11:09;;;;;;;;;;;4.40;85.00;;;;;;5046208;28;19920;-82
2022/03/16 03:13:35;;;;;;;;;;;4.40;84.60;;;;;;5045034;28;20301;-83
2022/03/16 03:16:00;;;;;;;;;;;4.30;84.00;;;;;;5036112;28;19917;-83
2022/03/16 03:18:26;;;;;;;;;;;4.20;84.50;;;;;;5049992;28;20262;-83
2022/03/16 03:20:51;;;;;;;;;;;4.20;84.80;;;;;;5036451;28;20400;-82
2022/03/16 03:23:17;;;;;;;;;;;4.20;84.80;;;;;;5043418;28;20037;-81
2022/03/16 03:25:42;;;;;;;;;;;4.20;84.10;;;;;;5045337;28;19917;-82
2022/03/16 03:28:08;;;;;;;;;;;4.10;83.40;;;;;;5037128;28;20712;-81
2022/03/16 03:30:33;;;;;;;;;;;4.10;83.60;;;;;;5042861;28;20365;-82
2022/03/16 03:32:59;;;;;;;;;;;4.00;83.30;;;;;;5063044;28;19960;-82
2022/03/16 03:35:24;;;;;;;;;;;3.90;83.30;;;;;;5038855;28;19913;-80
2022/03/16 03:37:53;;;;;;;;;;;3.90;83.20;;;;;;5055580;28;20305;-83
2022/03/16 03:40:19;;;;;;;;;;;3.80;83.50;;;;;;5050026;28;19939;-82
2022/03/16 03:42:44;;;;;;;;;;;3.90;83.90;;;;;;5046603;28;19913;-82
2022/03/16 03:45:10;;;;;;;;;;;3.70;84.20;;;;;;5045463;28;19913;-81
2022/03/16 03:47:35;;;;;;;;;;;3.70;84.80;;;;;;5048339;28;20396;-83
2022/03/16 03:50:01;;;;;;;;;;;3.80;84.60;;;;;;5047171;28;19914;-81
2022/03/16 03:52:27;;;;;;;;;;;3.80;84.30;;;;;;5053420;28;19932;-82
2022/03/16 03:54:52;;;;;;;;;;;3.70;84.00;;;;;;5049985;28;19920;-83
2022/03/16 03:57:18;;;;;;;;;;;3.60;84.60;;;;;;5065863;28;19920;-81
2022/03/16 03:59:44;;;;;;;;;;;3.60;84.40;;;;;;5066076;28;19972;-80
2022/03/16 04:02:09;;;;;;;;;;;3.60;84.80;;;;;;5060486;28;19917;-80
2022/03/16 04:04:34;;;;;;;;;;;3.60;85.10;;;;;;5050464;28;19982;-82
2022/03/16 04:07:00;;;;;;;;;;;3.70;85.30;;;;;;5051576;28;20365;-82
2022/03/16 04:09:25;;;;;;;;;;;3.70;85.30;;;;;;5051216;28;19920;-81
2022/03/16 04:11:51;;;;;;;;;;;3.80;85.00;;;;;;5046352;28;19971;-83
2022/03/16 04:14:17;;;;;;;;;;;3.90;84.70;;;;;;5036521;28;20395;-83
2022/03/16 04:16:43;;;;;;;;;;;3.70;84.40;;;;;;5066392;28;19944;-82
2022/03/16 04:19:08;;;;;;;;;;;3.70;84.90;;;;;;5048171;28;19919;-82
2022/03/16 04:21:34;;;;;;;;;;;3.70;84.70;;;;;;5052584;28;19925;-83
2022/03/16 04:24:00;;;;;;;;;;;3.70;85.10;;;;;;5047358;28;20541;-82
2022/03/16 04:26:25;;;;;;;;;;;3.70;85.70;;;;;;5042787;28;19916;-83
2022/03/16 04:28:51;;;;;;;;;;;3.70;85.70;;;;;;5051790;28;20049;-82
2022/03/16 04:31:16;;;;;;;;;;;3.70;85.30;;;;;;5044951;28;19912;-82
2022/03/16 04:33:42;;;;;;;;;;;3.70;85.30;;;;;;5050828;28;20285;-81
2022/03/16 04:36:07;;;;;;;;;;;3.70;85.00;;;;;;5053731;28;19917;-82
2022/03/16 04:38:33;;;;;;;;;;;3.70;85.50;;;;;;5046005;28;20010;-81
2022/03/16 04:41:02;;;;;;;;;;;3.70;84.90;;;;;;5074553;28;20377;-81
2022/03/16 04:43:27;;;;;;;;;;;3.60;84.90;;;;;;5056929;28;19920;-83
2022/03/16 04:45:53;;;;;;;;;;;3.70;84.60;;;;;;5053847;28;20301;-82
2022/03/16 04:48:18;;;;;;;;;;;3.70;84.40;;;;;;5048199;28;19987;-83
2022/03/16 04:50:44;;;;;;;;;;;3.60;84.40;;;;;;5054363;28;19909;-82
2022/03/16 04:53:09;;;;;;;;;;;3.60;84.70;;;;;;5056506;28;19920;-83
2022/03/16 04:55:37;;;;;;;;;;;3.60;84.80;;;;;;5055190;28;19913;-82
2022/03/16 04:58:07;;;;;;;;;;;3.60;85.20;;;;;;5048426;28;19917;-82
2022/03/16 05:00:36;;;;;;;;;;;3.70;85.40;;;;;;5046163;28;19996;-83
2022/03/16 05:03:02;;;;;;;;;;;3.70;85.30;;;;;;5049668;28;20356;-81
2022/03/16 05:05:28;;;;;;;;;;;3.60;85.60;;;;;;5055101;28;19974;-81
2022/03/16 05:07:54;;;;;;;;;;;3.60;85.90;;;;;;5042881;28;20451;-81
2022/03/16 05:10:20;;;;;;;;;;;3.70;86.10;;;;;;5054762;28;19916;-82
2022/03/16 05:12:45;;;;;;;;;;;3.80;85.90;;;;;;5057077;28;19991;-82
2022/03/16 05:15:18;;;;;;;;;;;3.70;85.50;;;;;;5054107;28;19920;-83
2022/03/16 05:17:44;;;;;;;;;;;3.70;85.30;;;;;;5051558;28;20528;-81
2022/03/16 05:20:10;;;;;;;;;;;3.80;85.20;;;;;;5055428;28;19919;-81
2022/03/16 05:22:43;;;;;;;;;;;3.80;85.30;;;;;;5046466;28;20550;-82
2022/03/16 05:25:09;;;;;;;;;;;3.80;85.10;;;;;;5047901;28;19979;-80
2022/03/16 05:27:35;;;;;;;;;;;3.80;85.10;;;;;;5063754;28;19913;-81
2022/03/16 05:30:00;;;;;;;;;;;3.70;84.90;;;;;;5057582;28;19913;-81
2022/03/16 05:32:26;;;;;;;;;;;3.70;84.90;;;;;;5060157;28;20266;-80
2022/03/16 05:34:51;;;;;;;;;;;3.60;84.70;;;;;;5055566;28;19938;-82
2022/03/16 05:37:17;;;;;;;;;;;3.60;85.20;;;;;;5057181;28;19955;-83
2022/03/16 05:39:42;;;;;;;;;;;3.60;85.30;;;;;;5042649;28;19913;-82
2022/03/16 05:42:08;;;;;;;;;;;3.60;85.40;;;;;;5041123;28;19913;-82
2022/03/16 05:44:34;;;;;;;;;;;3.60;86.20;;;;;;5050422;28;19913;-81
2022/03/16 05:47:00;;;;;;;;;;;3.70;86.30;;;;;;5054653;28;19915;-82
2022/03/16 05:49:28;;;;;;;;;;;3.80;86.10;;;;;;5048356;28;19953;-82
2022/03/16 05:51:54;;;;;;;;;;;3.90;85.90;;;;;;5084163;28;20340;-80
2022/03/16 05:54:19;;;;;;;;;;;3.80;85.70;;;;;;5041907;28;19913;-80
2022/03/16 05:56:45;;;;;;;;;;;3.80;85.70;;;;;;5050880;28;19913;-82
2022/03/16 05:59:10;;;;;;;;;;;3.70;86.10;;;;;;5050853;28;19916;-82
2022/03/16 06:01:35;;;;;;;;;;;3.80;86.10;;;;;;5052708;28;19921;-81
2022/03/16 06:04:01;;;;;;;;;;;3.80;86.00;;;;;;5048708;28;19917;-81
2022/03/16 06:06:29;;;;;;;;;;;3.80;85.90;;;;;;5049903;28;19913;-84
2022/03/16 06:08:56;;;;;;;;;;;3.90;85.80;;;;;;5045363;28;20479;-87
2022/03/16 06:11:21;;;;;;;;;;;3.90;85.80;;;;;;5054127;28;19920;-85
2022/03/16 06:13:47;;;;;;;;;;;3.90;86.10;;;;;;5042797;28;19917;-83
2022/03/16 06:16:13;;;;;;;;;;;3.90;86.00;;;;;;5055355;28;19919;-84
2022/03/16 06:18:38;;;;;;;;;;;3.90;86.00;;;;;;5042884;28;19916;-83
2022/03/16 06:21:04;;;;;;;;;;;3.90;85.90;;;;;;5052287;28;19931;-84
2022/03/16 06:23:29;;;;;;;;;;;4.00;85.80;;;;;;5051910;28;19939;-82
2022/03/16 06:25:55;;;;;;;;;;;4.00;85.60;;;;;;5058440;28;19974;-84
2022/03/16 06:28:20;;;;;;;;;;;4.00;85.60;;;;;;5063547;28;19924;-84
2022/03/16 06:30:45;;;;;;;;;;;4.10;85.30;;;;;;5055596;28;19917;-83
2022/03/16 06:33:11;;;;;;;;;;;4.10;85.20;;;;;;5058469;28;19929;-84
2022/03/16 06:35:36;;;;;;;;;;;4.10;85.20;;;;;;5050439;28;20240;-83
2022/03/16 06:38:02;;;;;;;;;;;4.10;85.50;;;;;;5053048;28;19913;-82
2022/03/16 06:40:28;;;;;;;;;;;4.10;85.40;;;;;;5048849;28;19928;-84
2022/03/16 06:42:58;;;;;;;;;;;4.20;85.10;;;;;;5047967;28;19913;-84
2022/03/16 06:45:24;;;;;;;;;;;4.20;85.20;;;;;;5050123;28;19935;-83
2022/03/16 06:47:53;;;;;;;;;;;4.20;85.00;;;;;;5047062;28;19935;-80
2022/03/16 06:50:20;;;;;;;;;;;4.20;85.10;;;;;;5048300;28;19956;-81
2022/03/16 06:52:46;;;;;;;;;;;4.30;84.70;;;;;;5044504;28;19917;-86
2022/03/16 06:55:11;;;;;;;;;;;4.30;84.60;;;;;;5046788;28;19952;-85
2022/03/16 06:57:37;;;;;;;;;;;4.30;85.00;;;;;;5062939;28;19905;-84
2022/03/16 07:00:03;;;;;;;;;;;4.40;85.00;;;;;;5060355;28;19932;-81
2022/03/16 07:02:29;;;;;;;;;;;4.50;85.20;;;;;;5045966;28;19919;-82
2022/03/16 07:04:55;;;;;;;;;;;4.50;85.00;;;;;;5036173;28;20012;-83
2022/03/16 07:07:20;;;;;;;;;;;4.60;84.90;;;;;;5047275;28;19976;-81
2022/03/16 07:09:45;;;;;;;;;;;4.60;85.00;;;;;;5043255;28;19945;-81
2022/03/16 07:12:11;;;;;;;;;;;4.60;85.20;;;;;;5050892;28;20388;-83
2022/03/16 07:14:37;;;;;;;;;;;4.70;85.40;;;;;;5049933;28;19908;-81
2022/03/16 07:17:02;;;;;;;;;;;4.70;85.80;;;;;;5050722;28;20003;-82
2022/03/16 07:19:29;;;;;;;;;;;4.60;86.40;;;;;;5065729;28;19947;-83
2022/03/16 07:21:56;;;;;;;;;;;4.60;86.40;;;;;;5061494;28;20000;-81
2022/03/16 07:24:22;;;;;;;;;;;4.70;86.20;;;;;;5067523;28;20223;-82
2022/03/16 07:26:48;;;;;;;;;;;4.80;86.70;;;;;;5065294;28;19927;-81
2022/03/16 07:29:13;;;;;;;;;;;4.90;86.40;;;;;;5050838;28;19909;-82
2022/03/16 07:31:39;;;;;;;;;;;5.00;86.50;;;;;;5059843;28;19912;-82
2022/03/16 07:34:04;;;;;;;;;;;5.10;86.40;;;;;;5057099;28;19916;-82
2022/03/16 07:36:31;;;;;;;;;;;5.30;85.90;;;;;;5058658;28;19999;-82
2022/03/16 07:38:57;;;;;;;;;;;5.30;85.40;;;;;;5048796;28;20329;-83
2022/03/16 07:41:22;;;;;;;;;;;5.40;85.80;;;;;;5051321;28;20025;-83
2022/03/16 07:43:48;;;;;;;;;;;5.50;85.60;;;;;;5051885;28;19924;-80
2022/03/16 07:46:13;;;;;;;;;;;5.60;86.00;;;;;;5044444;28;19913;-81
2022/03/16 07:48:43;;;;;;;;;;;5.70;85.60;;;;;;5050635;28;19913;-80
2022/03/16 07:51:09;;;;;;;;;;;5.80;85.30;;;;;;5052264;28;19916;-81
2022/03/16 07:53:34;;;;;;;;;;;5.90;85.00;;;;;;5053052;28;19917;-81
2022/03/16 07:56:00;;;;;;;;;;;6.00;85.30;;;;;;5055387;28;19920;-80
2022/03/16 07:58:25;;;;;;;;;;;6.10;85.10;;;;;;5055670;28;19915;-79
2022/03/16 08:00:51;;;;;;;;;;;6.40;84.40;;;;;;5047219;28;19919;-80
2022/03/16 08:03:16;;;;;;;;;;;6.60;83.00;;;;;;5055886;28;19913;-80
2022/03/16 08:05:42;;;;;;;;;;;6.60;82.40;;;;;;5052864;28;19913;-80
2022/03/16 08:08:08;;;;;;;;;;;6.70;83.20;;;;;;5086175;28;19951;-80
2022/03/16 08:10:33;;;;;;;;;;;6.80;82.80;;;;;;5049301;28;19913;-80
2022/03/16 08:12:59;;;;;;;;;;;6.90;82.60;;;;;;5037830;28;19913;-80
2022/03/16 08:15:24;;;;;;;;;;;7.00;81.50;;;;;;5045739;28;20431;-80
2022/03/16 08:17:50;;;;;;;;;;;7.20;82.30;;;;;;5054023;28;19912;-81
2022/03/16 08:20:16;;;;;;;;;;;7.30;81.50;;;;;;5052860;28;19917;-80
2022/03/16 08:22:41;;;;;;;;;;;7.30;80.20;;;;;;5054811;28;19913;-80
2022/03/16 08:25:08;;;;;;;;;;;7.30;80.60;;;;;;5039722;28;19928;-80
2022/03/16 08:27:34;;;;;;;;;;;7.40;79.70;;;;;;5046723;28;19917;-80
2022/03/16 08:30:00;;;;;;;;;;;7.40;80.50;;;;;;5067621;28;19907;-80
2022/03/16 08:32:25;;;;;;;;;;;7.50;79.70;;;;;;5071782;28;19917;-80
2022/03/16 08:34:51;;;;;;;;;;;7.60;80.20;;;;;;5062277;28;20396;-79
2022/03/16 08:37:18;;;;;;;;;;;7.60;80.20;;;;;;5076601;28;19984;-81
2022/03/16 08:39:44;;;;;;;;;;;7.80;79.90;;;;;;5062012;28;20234;-80
2022/03/16 08:42:13;;;;;;;;;;;7.80;79.10;;;;;;5056565;28;19912;-80
2022/03/16 08:44:40;;;;;;;;;;;7.90;79.00;;;;;;5052923;28;19913;-80
2022/03/16 08:47:06;;;;;;;;;;;8.00;79.10;;;;;;5054425;28;19920;-80
2022/03/16 08:49:31;;;;;;;;;;;8.20;78.60;;;;;;5053834;28;19913;-80
2022/03/16 08:51:57;;;;;;;;;;;8.30;78.70;;;;;;5051817;28;19928;-80
2022/03/16 08:54:23;;;;;;;;;;;8.40;77.20;;;;;;5037256;28;20460;-81
2022/03/16 08:56:49;;;;;;;;;;;8.50;78.20;;;;;;5056648;28;19913;-80
2022/03/16 08:59:15;;;;;;;;;;;8.60;76.40;;;;;;5066093;28;20269;-81
2022/03/16 09:01:40;;;;;;;;;;;8.70;76.60;;;;;;5058285;28;19966;-80
2022/03/16 09:04:06;;;;;;;;;;;8.80;76.50;;;;;;5053703;28;19948;-79
2022/03/16 09:06:31;;;;;;;;;;;8.90;76.40;;;;;;5042738;28;20640;-81
2022/03/16 09:08:57;;;;;;;;;;;9.00;76.40;;;;;;5045304;28;19913;-81
2022/03/16 09:11:22;;;;;;;;;;;9.10;75.10;;;;;;5037832;28;19913;-82
2022/03/16 09:13:48;;;;;;;;;;;9.40;75.00;;;;;;5053070;28;19932;-81
2022/03/16 09:16:14;;;;;;;;;;;9.50;73.70;;;;;;5074437;28;19917;-81
2022/03/16 09:18:40;;;;;;;;;;;9.50;73.80;;;;;;5043782;28;20004;-81
2022/03/16 09:21:05;;;;;;;;;;;9.60;73.20;;;;;;5042412;28;20306;-82
2022/03/16 09:23:31;;;;;;;;;;;9.80;72.40;;;;;;5052982;28;19913;-82
2022/03/16 09:25:58;;;;;;;;;;;9.80;72.20;;;;;;5051963;28;20015;-82
2022/03/16 09:28:23;;;;;;;;;;;9.80;71.20;;;;;;5056225;28;20031;-82
2022/03/16 09:30:49;;;;;;;;;;;9.90;72.50;;;;;;5041272;28;19913;-82
2022/03/16 09:33:14;;;;;;;;;;;10.00;71.90;;;;;;5052960;28;19969;-80
2022/03/16 09:35:40;;;;;;;;;;;10.10;70.70;;;;;;5059823;28;19925;-81
2022/03/16 09:38:06;;;;;;;;;;;10.20;71.30;;;;;;5058336;28;19912;-83
2022/03/16 09:40:33;;;;;;;;;;;10.20;70.90;;;;;;5057442;28;20362;-82
2022/03/16 09:42:59;;;;;;;;;;;10.20;71.30;;;;;;5062064;28;20380;-81
2022/03/16 09:45:27;;;;;;;;;;;10.30;69.90;;;;;;5079093;28;19931;-82
2022/03/16 09:47:53;;;;;;;;;;;10.30;70.50;;;;;;5079466;28;20010;-82
2022/03/16 09:50:19;;;;;;;;;;;10.50;70.10;;;;;;5065764;28;19905;-83
2022/03/16 09:52:45;;;;;;;;;;;10.70;68.90;;;;;;5071789;28;19948;-81
2022/03/16 09:55:11;;;;;;;;;;;10.70;68.50;;;;;;5060916;28;19909;-81
2022/03/16 09:57:36;;;;;;;;;;;10.80;68.20;;;;;;5054444;28;19915;-81
2022/03/16 10:00:02;;;;;;;;;;;11.00;67.70;;;;;;5051050;28;19916;-81
2022/03/16 10:02:28;;;;;;;;;;;11.20;66.80;;;;;;5043394;28;19935;-82
2022/03/16 10:04:54;;;;;;;;;;;11.30;67.50;;;;;;5053789;28;19909;-83
2022/03/16 10:07:32;;;;;;;;;;;11.30;66.60;;;;;;5050318;28;19913;-83
2022/03/16 10:15:26;;;;;;;;;;;11.60;65.70;;;;;;5053888;28;19954;-81
2022/03/16 10:18:05;;;;;;;;;;;11.60;66.40;;;;;;5059439;28;19995;-81
2022/03/16 10:20:31;;;;;;;;;;;11.70;66.10;;;;;;5053361;28;20070;-82
2022/03/16 10:22:58;;;;;;;;;;;12.00;65.40;;;;;;5054092;28;19940;-82
2022/03/16 10:25:24;;;;;;;;;;;12.10;63.80;;;;;;5054300;28;19928;-82
2022/03/16 10:27:50;;;;;;;;;;;12.10;64.40;;;;;;5055700;28;19976;-82
2022/03/16 10:30:15;;;;;;;;;;;12.00;61.90;;;;;;5048158;28;19917;-82
2022/03/16 10:32:52;;;;;;;;;;;12.00;63.30;;;;;;5060821;28;19917;-82
2022/03/16 10:35:17;;;;;;;;;;;12.10;63.00;;;;;;5058481;28;19912;-84
2022/03/16 10:37:43;;;;;;;;;;;12.20;63.10;;;;;;5055027;28;19935;-82
2022/03/16 10:40:17;;;;;;;;;;;12.30;62.20;;;;;;5053842;28;20276;-82
2022/03/16 10:48:21;;;;;;;;;;;12.20;61.00;;;;;;5055566;28;19939;-82
2022/03/16 10:50:48;;;;;;;;;;;12.30;62.10;;;;;;5057776;28;19909;-81
2022/03/16 10:53:15;;;;;;;;;;;12.30;62.50;;;;;;5047363;28;19921;-82
2022/03/16 10:55:41;;;;;;;;;;;12.40;60.50;;;;;;5050105;28;19921;-82
2022/03/16 10:58:07;;;;;;;;;;;12.50;61.20;;;;;;5051263;28;19920;-82
2022/03/16 11:00:34;;;;;;;;;;;12.50;61.80;;;;;;5055054;28;19936;-84
2022/03/16 11:03:01;;;;;;;;;;;12.50;61.00;;;;;;5048784;28;19910;-82
2022/03/16 11:05:27;;;;;;;;;;;12.40;60.40;;;;;;5086893;28;19955;-82
2022/03/16 11:07:53;;;;;;;;;;;12.50;61.50;;;;;;5057144;28;19923;-82
2022/03/16 11:10:19;;;;;;;;;;;12.40;61.20;;;;;;5051988;28;19916;-80
2022/03/16 11:15:29;;;;;;;;;;;12.40;61.00;;;;;;5054467;28;19920;-83
2022/03/16 11:17:55;;;;;;;;;;;12.50;59.90;;;;;;5051430;28;19924;-83
2022/03/16 11:20:21;;;;;;;;;;;12.50;60.10;;;;;;5046869;28;20278;-84
2022/03/16 11:26:03;;;;;;;;;;;12.60;60.70;;;;;;5066094;28;19975;-84
2022/03/16 11:28:33;;;;;;;;;;;12.60;60.60;;;;;;5042566;28;19909;-84
2022/03/16 11:31:00;;;;;;;;;;;12.70;60.30;;;;;;5069786;28;19913;-83
2022/03/16 11:33:26;;;;;;;;;;;13.00;58.60;;;;;;5058178;28;19928;-84
2022/03/16 11:35:52;;;;;;;;;;;13.00;59.60;;;;;;5039850;28;19909;-83
2022/03/16 11:38:18;;;;;;;;;;;13.20;58.90;;;;;;5039199;28;19917;-84
2022/03/16 11:40:45;;;;;;;;;;;13.20;59.80;;;;;;5040223;28;20344;-84
2022/03/16 11:43:15;;;;;;;;;;;13.50;59.00;;;;;;5050685;28;19913;-80
2022/03/16 11:45:45;;;;;;;;;;;13.50;59.70;;;;;;5052995;28;19920;-84
2022/03/16 11:51:13;;;;;;;;;;;13.50;57.70;;;;;;5039421;28;19913;-84
2022/03/16 11:53:48;;;;;;;;;;;13.40;58.70;;;;;;5057400;28;19994;-85
2022/03/16 11:56:24;;;;;;;;;;;13.50;59.20;;;;;;5089266;28;19909;-85
2022/03/16 11:58:54;;;;;;;;;;;13.30;58.80;;;;;;5056013;28;19913;-84
2022/03/16 12:01:31;;;;;;;;;;;13.30;59.70;;;;;;5057016;28;20559;-84
2022/03/16 12:04:02;;;;;;;;;;;13.40;58.90;;;;;;5058573;28;19916;-84
2022/03/16 12:06:29;;;;;;;;;;;13.50;57.70;;;;;;5070961;28;19978;-83
2022/03/16 12:08:58;;;;;;;;;;;13.50;55.00;;;;;;5053212;28;20027;-83
2022/03/16 12:14:08;;;;;;;;;;;13.50;56.00;;;;;;5047271;28;19944;-82
2022/03/16 12:16:41;;;;;;;;;;;13.50;54.00;;;;;;5048708;28;19936;-82
2022/03/16 12:19:27;;;;;;;;;;;13.50;55.40;;;;;;5057415;28;19913;-80
2022/03/16 12:21:54;;;;;;;;;;;13.40;54.80;;;;;;5047663;28;19913;-80
2022/03/16 12:30:01;;;;;;;;;;;13.50;53.90;;;;;;5060201;28;19908;-81
2022/03/16 12:32:32;;;;;;;;;;;13.60;53.50;;;;;;5077085;28;19925;-80
2022/03/16 12:34:58;;;;;;;;;;;13.70;53.00;;;;;;5067713;28;19980;-82
2022/03/16 12:37:24;;;;;;;;;;;13.70;54.00;;;;;;5057711;28;19913;-84
2022/03/16 12:39:49;;;;;;;;;;;13.70;52.30;;;;;;5051909;28;19924;-81
2022/03/16 12:42:33;;;;;;;;;;;13.80;52.70;;;;;;5053810;28;19916;-82
2022/03/16 12:45:03;;;;;;;;;;;13.80;53.20;;;;;;5051621;28;19916;-82
2022/03/16 12:47:36;;;;;;;;;;;14.00;54.60;;;;;;5051677;28;19917;-84
2022/03/16 12:50:02;;;;;;;;;;;14.00;53.20;;;;;;5050235;28;19913;-82
2022/03/16 12:52:27;;;;;;;;;;;14.10;52.80;;;;;;5047091;28;20396;-83
2022/03/16 12:54:54;;;;;;;;;;;14.00;52.70;;;;;;5049506;28;19912;-82
2022/03/16 12:57:20;;;;;;;;;;;14.10;53.50;;;;;;5051565;28;19913;-81
2022/03/16 12:59:48;;;;;;;;;;;14.10;53.10;;;;;;5053394;28;19935;-83
2022/03/16 13:02:18;;;;;;;;;;;14.10;53.60;;;;;;5049273;28;20335;-85
2022/03/16 13:04:43;;;;;;;;;;;14.20;52.20;;;;;;5079992;28;19920;-85
2022/03/16 13:07:09;;;;;;;;;;;14.20;53.20;;;;;;5048272;28;20544;-86
2022/03/16 13:09:35;;;;;;;;;;;14.40;53.50;;;;;;5046699;28;19917;-85
2022/03/16 13:12:05;;;;;;;;;;;14.30;51.90;;;;;;5047701;28;20396;-85
2022/03/16 13:14:33;;;;;;;;;;;14.30;51.90;;;;;;5053778;28;19962;-80
2022/03/16 13:16:59;;;;;;;;;;;14.40;52.40;;;;;;5057880;28;19925;-81
2022/03/16 13:19:30;;;;;;;;;;;14.50;50.80;;;;;;5055146;28;19921;-82
2022/03/16 13:22:05;;;;;;;;;;;14.50;50.90;;;;;;5057104;28;20065;-82
2022/03/16 13:24:37;;;;;;;;;;;14.60;50.10;;;;;;5072245;28;19913;-81
2022/03/16 13:27:04;;;;;;;;;;;14.60;51.40;;;;;;5041668;28;20370;-83
2022/03/16 13:29:33;;;;;;;;;;;14.40;51.20;;;;;;5049994;28;20046;-82
2022/03/16 13:32:00;;;;;;;;;;;14.10;51.10;;;;;;5046580;28;19917;-83
2022/03/16 13:34:26;;;;;;;;;;;14.10;52.30;;;;;;5053276;28;19914;-81
2022/03/16 13:36:52;;;;;;;;;;;14.20;52.00;;;;;;5062972;28;19919;-82
2022/03/16 13:39:25;;;;;;;;;;;14.20;52.40;;;;;;5055666;28;20000;-80
2022/03/16 13:42:12;;;;;;;;;;;14.30;51.70;;;;;;5054330;28;19909;-83
2022/03/16 13:44:42;;;;;;;;;;;14.20;51.10;;;;;;5055379;28;19920;-80
2022/03/16 13:47:11;;;;;;;;;;;14.20;51.50;;;;;;5052104;28;19928;-79
2022/03/16 13:49:39;;;;;;;;;;;14.20;51.10;;;;;;5046532;28;19909;-82
2022/03/16 13:52:06;;;;;;;;;;;14.20;51.20;;;;;;5044023;28;19920;-80
2022/03/16 13:54:32;;;;;;;;;;;14.10;52.10;;;;;;5045563;28;19913;-78
2022/03/16 13:57:08;;;;;;;;;;;14.10;52.20;;;;;;5046750;28;19990;-81
2022/03/16 13:59:34;;;;;;;;;;;14.10;52.20;;;;;;5050864;28;20419;-82
2022/03/16 14:02:09;;;;;;;;;;;14.20;52.10;;;;;;5059958;28;19913;-81
2022/03/16 14:04:42;;;;;;;;;;;14.30;51.60;;;;;;5044547;28;19912;-80
2022/03/16 14:07:23;;;;;;;;;;;14.30;51.60;;;;;;5047160;28;19924;-79
2022/03/16 14:09:53;;;;;;;;;;;14.30;52.00;;;;;;5045532;28;19942;-80
2022/03/16 14:12:19;;;;;;;;;;;14.50;52.00;;;;;;5052186;28;20385;-79
2022/03/16 14:14:46;;;;;;;;;;;14.50;52.50;;;;;;5043228;28;19924;-80
2022/03/16 14:17:12;;;;;;;;;;;14.50;51.40;;;;;;5051378;28;20011;-80
2022/03/16 14:19:38;;;;;;;;;;;14.60;51.00;;;;;;5052318;28;20321;-80
2022/03/16 14:22:07;;;;;;;;;;;14.50;51.90;;;;;;5053225;28;19960;-80
2022/03/16 14:24:33;;;;;;;;;;;14.50;51.90;;;;;;5053045;28;19909;-80
2022/03/16 14:27:15;;;;;;;;;;;14.50;52.70;;;;;;5051177;28;19927;-81
2022/03/16 14:29:51;;;;;;;;;;;14.60;52.00;;;;;;5034926;28;19913;-79
2022/03/16 14:32:17;;;;;;;;;;;14.50;52.00;;;;;;5061744;28;19925;-81
2022/03/16 14:34:43;;;;;;;;;;;14.50;52.70;;;;;;5054644;28;20629;-81
2022/03/16 14:37:09;;;;;;;;;;;14.50;53.00;;;;;;5055846;28;19953;-81
2022/03/16 14:39:35;;;;;;;;;;;14.50;52.90;;;;;;5055007;28;19959;-81
2022/03/16 14:42:01;;;;;;;;;;;14.60;53.00;;;;;;5056291;28;19976;-80
2022/03/16 14:44:26;;;;;;;;;;;14.60;52.30;;;;;;5053790;28;19912;-81
2022/03/16 14:46:53;;;;;;;;;;;14.60;52.30;;;;;;5056439;28;19924;-79
2022/03/16 14:49:19;;;;;;;;;;;14.60;51.90;;;;;;5048147;28;19917;-80
2022/03/16 14:51:44;;;;;;;;;;;14.80;51.60;;;;;;5034101;28;20366;-80